createdAt,value
2018-08-12T00:00:24.087Z,101429.00
2018-08-12T00:02:53.656Z,101438.00
2018-08-12T00:05:22.560Z,101435.00
2018-08-12T00:07:51.451Z,101435.00
2018-08-12T00:10:20.365Z,101432.00
2018-08-12T00:12:49.192Z,101427.00
2018-08-12T00:15:20.265Z,101428.00
2018-08-12T00:17:49.146Z,101437.00
2018-08-12T00:20:19.960Z,101433.00
2018-08-12T00:22:49.131Z,101437.00
2018-08-12T00:25:20.442Z,101438.00
2018-08-12T00:27:49.314Z,101423.00
2018-08-12T00:30:19.011Z,101414.00
2018-08-12T00:32:47.918Z,101418.00
2018-08-12T00:35:19.072Z,101431.00
2018-08-12T00:37:47.996Z,101426.00
2018-08-12T00:40:17.705Z,101428.00
2018-08-12T00:42:47.227Z,101421.00
2018-08-12T00:45:17.702Z,101423.00
2018-08-12T00:47:46.843Z,101424.00
2018-08-12T00:50:16.530Z,101420.00
2018-08-12T00:52:45.458Z,101415.00
2018-08-12T00:55:16.280Z,101420.00
2018-08-12T00:57:46.156Z,101422.00
2018-08-12T01:00:21.182Z,101424.00
2018-08-12T01:02:50.055Z,101427.00
2018-08-12T01:05:19.697Z,101427.00
2018-08-12T01:07:49.372Z,101422.00
2018-08-12T01:10:18.923Z,101422.00
2018-08-12T01:12:47.793Z,101431.00
2018-08-12T01:15:18.711Z,101426.00
2018-08-12T01:17:47.572Z,101418.00
2018-08-12T01:20:20.816Z,101418.00
2018-08-12T01:22:50.010Z,101409.00
2018-08-12T01:25:19.168Z,101416.00
2018-08-12T01:27:48.014Z,101414.00
2018-08-12T01:30:19.896Z,101411.00
2018-08-12T01:32:49.327Z,101411.00
2018-08-12T01:35:18.558Z,101405.00
2018-08-12T01:37:47.993Z,101410.00
2018-08-12T01:40:17.687Z,101402.00
2018-08-12T01:42:46.823Z,101404.00
2018-08-12T01:45:17.872Z,101410.00
2018-08-12T01:47:46.743Z,101396.00
2018-08-12T01:50:16.989Z,101406.00
2018-08-12T01:52:45.905Z,101400.00
2018-08-12T01:55:15.284Z,101399.00
2018-08-12T01:57:44.191Z,101401.00
2018-08-12T02:00:20.975Z,101400.00
2018-08-12T02:02:50.117Z,101404.00
2018-08-12T02:05:19.363Z,101408.00
2018-08-12T02:07:48.287Z,101409.00
2018-08-12T02:10:17.169Z,101405.00
2018-08-12T02:12:46.014Z,101402.00
2018-08-12T02:15:14.915Z,101411.00
2018-08-12T02:17:43.731Z,101405.00
2018-08-12T02:20:13.028Z,101408.00
2018-08-12T02:22:42.435Z,101412.00
2018-08-12T02:25:11.964Z,101406.00
2018-08-12T02:27:40.888Z,101405.00
2018-08-12T02:30:11.777Z,101406.00
2018-08-12T02:32:41.143Z,101405.00
2018-08-12T02:35:10.168Z,101407.00
2018-08-12T02:37:39.363Z,101420.00
2018-08-12T02:40:09.486Z,101422.00
2018-08-12T02:42:38.366Z,101410.00
2018-08-12T02:45:10.843Z,101404.00
2018-08-12T02:47:39.679Z,101406.00
2018-08-12T02:50:08.521Z,101411.00
2018-08-12T02:52:37.892Z,101400.00
2018-08-12T02:55:08.337Z,101405.00
2018-08-12T02:57:37.258Z,101400.00
2018-08-12T03:00:06.896Z,101399.00
2018-08-12T03:02:35.963Z,101399.00
2018-08-12T03:05:05.127Z,101404.00
2018-08-12T03:07:34.439Z,101408.00
2018-08-12T03:10:03.339Z,101407.00
2018-08-12T03:12:32.177Z,101400.00
2018-08-12T03:15:01.049Z,101412.00
2018-08-12T03:17:29.951Z,101410.00
2018-08-12T03:19:58.834Z,101408.00
2018-08-12T03:22:27.756Z,101410.00
2018-08-12T03:24:56.552Z,101409.00
2018-08-12T03:27:25.406Z,101404.00
2018-08-12T03:29:54.264Z,101410.00
2018-08-12T03:32:23.113Z,101407.00
2018-08-12T03:34:51.978Z,101403.00
2018-08-12T03:37:20.844Z,101412.00
2018-08-12T03:39:49.680Z,101412.00
2018-08-12T03:42:18.549Z,101418.00
2018-08-12T03:44:47.435Z,101409.00
2018-08-12T03:47:16.315Z,101417.00
2018-08-12T03:49:45.176Z,101419.00
2018-08-12T03:52:14.074Z,101415.00
2018-08-12T03:54:42.951Z,101417.00
2018-08-12T03:57:11.876Z,101414.00
2018-08-12T03:59:40.719Z,101417.00
2018-08-12T04:02:09.593Z,101415.00
2018-08-12T04:04:38.695Z,101418.00
2018-08-12T04:07:07.569Z,101417.00
2018-08-12T04:09:36.400Z,101415.00
2018-08-12T04:12:05.325Z,101410.00
2018-08-12T04:14:34.213Z,101415.00
2018-08-12T04:17:03.065Z,101425.00
2018-08-12T04:19:32.252Z,101421.00
2018-08-12T04:22:01.747Z,101415.00
2018-08-12T04:24:30.579Z,101421.00
2018-08-12T04:26:59.468Z,101258.00
2018-08-12T04:29:28.351Z,101423.00
2018-08-12T04:31:57.244Z,101415.00
2018-08-12T04:34:26.078Z,101421.00
2018-08-12T04:36:55.013Z,101417.00
2018-08-12T04:39:23.875Z,101415.00
2018-08-12T04:41:52.717Z,101410.00
2018-08-12T04:44:21.559Z,101420.00
2018-08-12T04:46:50.411Z,101425.00
2018-08-12T04:49:19.309Z,101420.00
2018-08-12T04:51:48.122Z,101407.00
2018-08-12T04:54:16.948Z,101411.00
2018-08-12T04:56:45.811Z,101415.00
2018-08-12T04:59:14.692Z,101400.00
2018-08-12T05:01:43.544Z,101414.00
2018-08-12T05:04:12.459Z,101411.00
2018-08-12T05:06:41.304Z,101414.00
2018-08-12T05:09:11.412Z,101407.00
2018-08-12T05:11:40.771Z,101407.00
2018-08-12T05:14:09.648Z,101401.00
2018-08-12T05:16:38.498Z,101399.00
2018-08-12T05:19:07.310Z,101398.00
2018-08-12T05:21:36.233Z,101391.00
2018-08-12T05:24:05.107Z,101387.00
2018-08-12T05:26:33.924Z,101387.00
2018-08-12T05:29:02.804Z,101385.00
2018-08-12T05:31:31.831Z,101381.00
2018-08-12T05:34:00.655Z,101377.00
2018-08-12T05:36:29.600Z,101381.00
2018-08-12T05:38:58.470Z,101375.00
2018-08-12T05:41:27.307Z,101380.00
2018-08-12T05:43:56.171Z,101371.00
2018-08-12T05:46:25.053Z,101368.00
2018-08-12T05:48:53.913Z,101379.00
2018-08-12T05:51:22.755Z,101369.00
2018-08-12T05:53:51.626Z,101367.00
2018-08-12T05:56:20.520Z,101371.00
2018-08-12T05:58:49.374Z,101365.00
2018-08-12T06:01:18.259Z,101365.00
2018-08-12T06:03:47.229Z,101355.00
2018-08-12T06:06:16.142Z,101359.00
2018-08-12T06:08:45.013Z,101351.00
2018-08-12T06:11:13.901Z,101339.00
2018-08-12T06:13:42.782Z,101338.00
2018-08-12T06:16:11.854Z,101340.00
2018-08-12T06:18:40.720Z,101342.00
2018-08-12T06:21:09.522Z,101335.00
2018-08-12T06:23:38.413Z,101339.00
2018-08-12T06:26:07.504Z,101341.00
2018-08-12T06:28:36.447Z,101333.00
2018-08-12T06:31:05.283Z,101334.00
2018-08-12T06:33:34.108Z,101335.00
2018-08-12T06:36:02.988Z,101349.00
2018-08-12T06:38:31.856Z,101339.00
2018-08-12T06:41:00.688Z,101339.00
2018-08-12T06:43:29.482Z,101330.00
2018-08-12T06:45:58.350Z,101325.00
2018-08-12T06:48:27.216Z,101339.00
2018-08-12T06:50:56.326Z,101343.00
2018-08-12T06:53:25.189Z,101349.00
2018-08-12T06:55:54.026Z,101338.00
2018-08-12T06:58:22.950Z,101344.00
2018-08-12T07:00:51.743Z,101341.00
2018-08-12T07:03:20.608Z,101343.00
2018-08-12T07:05:49.443Z,101330.00
2018-08-12T07:08:18.289Z,101333.00
2018-08-12T07:10:47.140Z,101330.00
2018-08-12T07:13:15.971Z,101335.00
2018-08-12T07:15:44.868Z,101336.00
2018-08-12T07:18:13.707Z,101330.00
2018-08-12T07:20:42.536Z,101319.00
2018-08-12T07:23:11.398Z,101318.00
2018-08-12T07:25:40.214Z,101324.00
2018-08-12T07:28:09.088Z,101317.00
2018-08-12T07:30:37.925Z,101320.00
2018-08-12T07:33:06.776Z,101300.00
2018-08-12T07:35:35.627Z,101309.00
2018-08-12T07:38:04.450Z,101314.00
2018-08-12T07:40:33.336Z,101312.00
2018-08-12T07:43:02.216Z,101315.00
2018-08-12T07:45:31.068Z,101310.00
2018-08-12T07:47:59.870Z,101305.00
2018-08-12T07:50:28.716Z,101304.00
2018-08-12T07:52:57.581Z,101307.00
2018-08-12T07:55:26.459Z,101310.00
2018-08-12T07:57:55.285Z,101304.00
2018-08-12T08:00:24.217Z,101307.00
2018-08-12T08:02:53.077Z,101305.00
2018-08-12T08:05:21.927Z,101301.00
2018-08-12T08:07:50.760Z,101300.00
2018-08-12T08:10:19.706Z,101296.00
2018-08-12T08:12:48.540Z,101290.00
2018-08-12T08:15:20.433Z,101291.00
2018-08-12T08:17:49.433Z,101296.00
2018-08-12T08:20:18.245Z,101301.00
2018-08-12T08:22:47.129Z,101298.00
2018-08-12T08:25:15.964Z,101291.00
2018-08-12T08:27:44.820Z,101304.00
2018-08-12T08:30:15.569Z,101294.00
2018-08-12T08:32:44.628Z,101294.00
2018-08-12T08:35:14.153Z,101291.00
2018-08-12T08:37:43.594Z,101294.00
2018-08-12T08:40:15.465Z,101287.00
2018-08-12T08:42:44.564Z,101290.00
2018-08-12T08:45:16.262Z,101295.00
2018-08-12T08:47:48.186Z,101284.00
2018-08-12T08:50:18.391Z,101286.00
2018-08-12T08:52:47.231Z,101284.00
2018-08-12T08:55:16.660Z,101278.00
2018-08-12T08:57:46.055Z,101282.00
2018-08-12T09:00:18.577Z,101282.00
2018-08-12T09:02:48.907Z,101279.00
2018-08-12T09:05:18.300Z,101276.00
2018-08-12T09:07:47.397Z,101276.00
2018-08-12T09:10:17.315Z,101255.00
2018-08-12T09:12:46.185Z,101263.00
2018-08-12T09:15:17.048Z,101260.00
2018-08-12T09:17:46.415Z,101269.00
2018-08-12T09:20:17.503Z,101265.00
2018-08-12T09:22:46.315Z,101254.00
2018-08-12T09:25:15.334Z,101248.00
2018-08-12T09:27:44.212Z,101252.00
2018-08-12T09:30:16.042Z,101248.00
2018-08-12T09:32:45.812Z,101238.00
2018-08-12T09:35:14.630Z,101243.00
2018-08-12T09:37:43.504Z,101251.00
2018-08-12T09:40:15.360Z,101236.00
2018-08-12T09:42:44.991Z,101236.00
2018-08-12T09:45:16.613Z,101247.00
2018-08-12T09:47:45.516Z,101238.00
2018-08-12T09:50:17.133Z,101231.00
2018-08-12T09:52:46.630Z,101228.00
2018-08-12T09:55:16.000Z,101222.00
2018-08-12T09:57:44.831Z,101224.00
2018-08-12T10:00:21.110Z,101225.00
2018-08-12T10:02:51.611Z,101214.00
2018-08-12T10:05:20.581Z,101217.00
2018-08-12T10:07:49.390Z,101208.00
2018-08-12T10:10:18.359Z,101204.00
2018-08-12T10:12:47.411Z,101197.00
2018-08-12T10:15:16.931Z,101186.00
2018-08-12T10:17:47.836Z,101190.00
2018-08-12T10:20:16.680Z,101184.00
2018-08-12T10:22:45.576Z,101180.00
2018-08-12T10:25:14.404Z,101188.00
2018-08-12T10:27:43.340Z,101170.00
2018-08-12T10:30:13.411Z,101166.00
2018-08-12T10:32:42.276Z,101162.00
2018-08-12T10:35:13.276Z,101164.00
2018-08-12T10:37:42.647Z,101168.00
2018-08-12T10:40:15.359Z,101154.00
2018-08-12T10:42:44.999Z,101166.00
2018-08-12T10:45:14.027Z,101156.00
2018-08-12T10:47:43.699Z,101158.00
2018-08-12T10:50:15.619Z,101143.00
2018-08-12T10:52:45.187Z,101140.00
2018-08-12T10:55:15.485Z,101138.00
2018-08-12T10:57:44.354Z,101130.00
2018-08-12T11:00:19.072Z,101142.00
2018-08-12T11:02:48.217Z,101136.00
2018-08-12T11:05:17.665Z,101141.00
2018-08-12T11:07:49.095Z,101129.00
2018-08-12T11:10:17.936Z,101122.00
2018-08-12T11:12:46.874Z,101131.00
2018-08-12T11:15:15.607Z,101118.00
2018-08-12T11:17:44.460Z,101123.00
2018-08-12T11:20:13.291Z,101121.00
2018-08-12T11:22:42.172Z,101114.00
2018-08-12T11:25:12.023Z,101113.00
2018-08-12T11:27:40.973Z,101114.00
2018-08-12T11:30:13.951Z,101106.00
2018-08-12T11:32:42.853Z,101108.00
2018-08-12T11:35:15.775Z,101102.00
2018-08-12T11:37:45.006Z,101094.00
2018-08-12T11:40:14.824Z,101091.00
2018-08-12T11:42:43.912Z,101099.00
2018-08-12T11:45:14.937Z,101094.00
2018-08-12T11:47:44.669Z,101092.00
2018-08-12T11:50:14.377Z,101072.00
2018-08-12T11:52:44.043Z,101067.00
2018-08-12T11:55:16.623Z,101070.00
2018-08-12T11:57:45.566Z,101099.00
2018-08-12T12:00:19.211Z,101083.00
2018-08-12T12:02:49.218Z,101076.00
2018-08-12T12:05:18.075Z,101068.00
2018-08-12T12:07:46.953Z,101064.00
2018-08-12T12:10:17.887Z,101059.00
2018-08-12T12:12:47.775Z,101058.00
2018-08-12T12:15:16.983Z,101059.00
2018-08-12T12:17:46.283Z,101060.00
2018-08-12T12:20:15.959Z,101052.00
2018-08-12T12:22:45.570Z,101063.00
2018-08-12T12:25:15.657Z,101046.00
2018-08-12T12:27:44.488Z,101051.00
2018-08-12T12:30:18.310Z,101040.00
2018-08-12T12:32:48.017Z,101030.00
2018-08-12T12:35:16.920Z,101036.00
2018-08-12T12:37:45.932Z,101033.00
2018-08-12T12:40:16.387Z,101025.00
2018-08-12T12:42:45.699Z,101014.00
2018-08-12T12:45:14.968Z,101029.00
2018-08-12T12:47:44.109Z,101021.00
2018-08-12T12:50:19.626Z,101024.00
2018-08-12T12:52:49.375Z,101023.00
2018-08-12T12:55:18.862Z,101030.00
2018-08-12T12:57:47.692Z,101032.00
2018-08-12T13:00:18.504Z,101022.00
2018-08-12T13:02:47.621Z,101017.00
2018-08-12T13:05:17.838Z,101036.00
2018-08-12T13:07:47.752Z,101017.00
2018-08-12T13:10:17.786Z,101021.00
2018-08-12T13:12:46.661Z,101013.00
2018-08-12T13:15:16.596Z,101003.00
2018-08-12T13:17:45.551Z,101006.00
2018-08-12T13:20:16.831Z,100997.00
2018-08-12T13:22:46.743Z,100998.00
2018-08-12T13:25:17.688Z,100994.00
2018-08-12T13:27:46.587Z,100984.00
2018-08-12T13:30:16.417Z,100976.00
2018-08-12T13:32:46.244Z,100975.00
2018-08-12T13:35:15.161Z,100971.00
2018-08-12T13:37:44.044Z,100969.00
2018-08-12T13:40:14.661Z,100966.00
2018-08-12T13:42:44.595Z,100963.00
2018-08-12T13:45:14.437Z,100960.00
2018-08-12T13:47:44.517Z,100962.00
2018-08-12T13:50:22.887Z,100952.00
2018-08-12T13:52:52.303Z,100957.00
2018-08-12T13:55:21.729Z,100951.00
2018-08-12T13:57:51.511Z,100940.00
2018-08-12T14:00:22.664Z,100947.00
2018-08-12T14:02:51.523Z,100943.00
2018-08-12T14:05:20.634Z,100937.00
2018-08-12T14:07:50.012Z,100935.00
2018-08-12T14:10:18.970Z,100926.00
2018-08-12T14:12:47.855Z,100934.00
2018-08-12T14:15:18.150Z,100925.00
2018-08-12T14:17:48.089Z,100920.00
2018-08-12T14:20:18.424Z,100925.00
2018-08-12T14:22:47.333Z,100933.00
2018-08-12T14:25:16.196Z,100913.00
2018-08-12T14:27:45.368Z,100912.00
2018-08-12T14:30:17.116Z,100907.00
2018-08-12T14:32:46.574Z,100911.00
2018-08-12T14:35:15.402Z,100900.00
2018-08-12T14:37:44.254Z,100904.00
2018-08-12T14:40:13.767Z,100897.00
2018-08-12T14:42:42.883Z,100884.00
2018-08-12T14:45:14.332Z,100892.00
2018-08-12T14:47:43.458Z,100887.00
2018-08-12T14:50:14.798Z,100881.00
2018-08-12T14:52:43.775Z,100877.00
2018-08-12T14:55:13.311Z,100872.00
2018-08-12T14:57:42.827Z,100868.00
2018-08-12T15:00:14.706Z,100866.00
2018-08-12T15:02:43.779Z,100850.00
2018-08-12T15:05:12.612Z,100848.00
2018-08-12T15:07:41.487Z,100855.00
2018-08-12T15:10:11.565Z,100852.00
2018-08-12T15:12:41.141Z,100844.00
2018-08-12T15:15:11.547Z,100855.00
2018-08-12T15:17:41.554Z,100844.00
2018-08-12T15:20:11.309Z,100856.00
2018-08-12T15:22:40.404Z,100839.00
2018-08-12T15:25:11.947Z,100831.00
2018-08-12T15:27:40.805Z,100835.00
2018-08-12T15:30:10.460Z,100835.00
2018-08-12T15:32:39.537Z,100825.00
2018-08-12T15:35:09.042Z,100819.00
2018-08-12T15:37:37.999Z,100812.00
2018-08-12T15:40:10.654Z,100805.00
2018-08-12T15:42:39.621Z,100816.00
2018-08-12T15:45:11.721Z,100812.00
2018-08-12T15:47:41.184Z,100805.00
2018-08-12T15:50:10.848Z,100802.00
2018-08-12T15:52:40.400Z,100799.00
2018-08-12T15:55:09.672Z,100806.00
2018-08-12T15:57:38.556Z,100795.00
2018-08-12T16:00:14.723Z,100791.00
2018-08-12T16:02:44.215Z,100796.00
2018-08-12T16:05:13.192Z,100793.00
2018-08-12T16:07:42.320Z,100792.00
2018-08-12T16:10:14.747Z,100790.00
2018-08-12T16:12:43.709Z,100782.00
2018-08-12T16:15:13.176Z,100783.00
2018-08-12T16:17:42.274Z,100786.00
2018-08-12T16:20:12.009Z,100778.00
2018-08-12T16:22:40.897Z,100775.00
2018-08-12T16:25:12.973Z,100777.00
2018-08-12T16:27:42.646Z,100779.00
2018-08-12T16:30:13.554Z,100772.00
2018-08-12T16:32:42.379Z,100766.00
2018-08-12T16:35:13.046Z,100759.00
2018-08-12T16:37:42.603Z,100760.00
2018-08-12T16:40:16.088Z,100761.00
2018-08-12T16:42:45.159Z,100760.00
2018-08-12T16:45:15.164Z,100751.00
2018-08-12T16:47:44.623Z,100753.00
2018-08-12T16:50:13.641Z,100748.00
2018-08-12T16:52:42.939Z,100750.00
2018-08-12T16:55:15.892Z,100746.00
2018-08-12T16:57:45.665Z,100744.00
2018-08-12T17:00:17.854Z,100740.00
2018-08-12T17:02:46.909Z,100735.00
2018-08-12T17:05:17.623Z,100727.00
2018-08-12T17:07:46.698Z,100733.00
2018-08-12T17:10:17.120Z,100727.00
2018-08-12T17:12:46.155Z,100726.00
2018-08-12T17:15:17.480Z,100725.00
2018-08-12T17:17:46.848Z,100720.00
2018-08-12T17:20:17.432Z,100717.00
2018-08-12T17:22:46.811Z,100721.00
2018-08-12T17:25:15.792Z,100715.00
2018-08-12T17:27:44.637Z,100714.00
2018-08-12T17:30:15.112Z,100713.00
2018-08-12T17:32:43.921Z,100707.00
2018-08-12T17:35:12.790Z,100709.00
2018-08-12T17:37:42.666Z,100702.00
2018-08-12T17:40:12.903Z,100700.00
2018-08-12T17:42:41.738Z,100704.00
2018-08-12T17:45:12.464Z,100703.00
2018-08-12T17:47:41.719Z,100701.00
2018-08-12T17:50:12.318Z,100700.00
2018-08-12T17:52:41.843Z,100697.00
2018-08-12T17:55:10.661Z,100695.00
2018-08-12T17:57:39.476Z,100695.00
2018-08-12T18:00:11.513Z,100690.00
2018-08-12T18:02:40.604Z,100687.00
2018-08-12T18:05:09.876Z,100690.00
2018-08-12T18:07:39.288Z,100688.00
2018-08-12T18:10:08.144Z,100685.00
2018-08-12T18:12:37.476Z,100693.00
2018-08-12T18:15:08.044Z,100683.00
2018-08-12T18:17:36.926Z,100680.00
2018-08-12T18:20:05.956Z,100672.00
2018-08-12T18:22:34.811Z,100681.00
2018-08-12T18:25:04.241Z,100681.00
2018-08-12T18:27:33.047Z,100676.00
2018-08-12T18:30:01.941Z,100677.00
2018-08-12T18:32:30.811Z,100673.00
2018-08-12T18:34:59.647Z,100671.00
2018-08-12T18:37:28.489Z,100674.00
2018-08-12T18:39:57.332Z,100672.00
2018-08-12T18:42:26.237Z,100670.00
2018-08-12T18:44:55.065Z,100669.00
2018-08-12T18:47:23.916Z,100668.00
2018-08-12T18:49:52.726Z,100670.00
2018-08-12T18:52:21.567Z,100671.00
2018-08-12T18:54:50.390Z,100669.00
2018-08-12T18:57:19.240Z,100666.00
2018-08-12T18:59:48.087Z,100662.00
2018-08-12T19:02:16.981Z,100656.00
2018-08-12T19:04:45.892Z,100662.00
2018-08-12T19:07:14.769Z,100656.00
2018-08-12T19:09:43.641Z,100655.00
2018-08-12T19:12:12.447Z,100656.00
2018-08-12T19:14:41.356Z,100660.00
2018-08-12T19:17:10.217Z,100655.00
2018-08-12T19:19:39.172Z,100655.00
2018-08-12T19:22:08.025Z,100645.00
2018-08-12T19:24:36.864Z,100649.00
2018-08-12T19:27:05.752Z,100646.00
2018-08-12T19:29:34.633Z,100642.00
2018-08-12T19:32:03.484Z,100636.00
2018-08-12T19:34:32.322Z,100643.00
2018-08-12T19:37:01.206Z,100639.00
2018-08-12T19:39:30.086Z,100636.00
2018-08-12T19:41:58.980Z,100641.00
2018-08-12T19:44:27.876Z,100637.00
2018-08-12T19:46:56.821Z,100634.00
2018-08-12T19:49:25.680Z,100628.00
2018-08-12T19:51:54.536Z,100628.00
2018-08-12T19:54:23.419Z,100628.00
2018-08-12T19:56:52.218Z,100627.00
2018-08-12T19:59:21.084Z,100624.00
2018-08-12T20:01:49.920Z,100629.00
2018-08-12T20:04:19.322Z,100628.00
2018-08-12T20:06:48.184Z,100616.00
2018-08-12T20:09:17.039Z,100619.00
2018-08-12T20:11:45.902Z,100608.00
2018-08-12T20:14:14.743Z,100611.00
2018-08-12T20:16:43.595Z,100607.00
2018-08-12T20:19:12.444Z,100611.00
2018-08-12T20:21:41.279Z,100615.00
2018-08-12T20:24:10.157Z,100616.00
2018-08-12T20:26:38.949Z,100612.00
2018-08-12T20:29:07.846Z,100606.00
2018-08-12T20:31:36.691Z,100612.00
2018-08-12T20:34:05.574Z,100602.00
2018-08-12T20:36:34.432Z,100605.00
2018-08-12T20:39:04.087Z,100603.00
2018-08-12T20:41:32.919Z,100612.00
2018-08-12T20:44:01.774Z,100612.00
2018-08-12T20:46:30.626Z,100605.00
2018-08-12T20:48:59.455Z,100606.00
2018-08-12T20:51:28.355Z,100608.00
2018-08-12T20:53:57.268Z,100608.00
2018-08-12T20:56:26.101Z,100610.00
2018-08-12T20:58:54.985Z,100606.00
2018-08-12T21:01:23.849Z,100603.00
2018-08-12T21:03:52.744Z,100606.00
2018-08-12T21:06:21.629Z,100599.00
2018-08-12T21:08:50.566Z,100602.00
2018-08-12T21:11:19.365Z,100591.00
2018-08-12T21:13:48.273Z,100592.00
2018-08-12T21:16:17.112Z,100600.00
2018-08-12T21:18:46.036Z,100591.00
2018-08-12T21:21:14.879Z,100595.00
2018-08-12T21:23:43.703Z,100589.00
2018-08-12T21:26:12.546Z,100591.00
2018-08-12T21:28:41.318Z,100587.00
2018-08-12T21:31:10.160Z,100582.00
2018-08-12T21:33:39.061Z,100582.00
2018-08-12T21:36:07.891Z,100576.00
2018-08-12T21:38:36.734Z,100572.00
2018-08-12T21:41:05.574Z,100569.00
2018-08-12T21:43:34.404Z,100567.00
2018-08-12T21:46:03.298Z,100568.00
2018-08-12T21:48:32.644Z,100568.00
2018-08-12T21:51:01.521Z,100560.00
2018-08-12T21:53:30.392Z,100561.00
2018-08-12T21:55:59.264Z,100561.00
2018-08-12T21:58:28.087Z,100555.00
2018-08-12T22:00:57.819Z,100559.00
2018-08-12T22:03:26.689Z,100560.00
2018-08-12T22:05:55.573Z,100553.00
2018-08-12T22:08:24.427Z,100556.00
2018-08-12T22:10:53.318Z,100560.00
2018-08-12T22:13:22.207Z,100550.00
2018-08-12T22:15:51.206Z,100550.00
2018-08-12T22:18:20.043Z,100550.00
2018-08-12T22:20:49.800Z,100555.00
2018-08-12T22:23:18.650Z,100549.00
2018-08-12T22:25:47.491Z,100547.00
2018-08-12T22:28:16.361Z,100542.00
2018-08-12T22:30:45.191Z,100538.00
2018-08-12T22:33:13.981Z,100545.00
2018-08-12T22:35:42.799Z,100545.00
2018-08-12T22:38:11.676Z,100536.00
2018-08-12T22:40:40.492Z,100533.00
2018-08-12T22:43:09.390Z,100526.00
2018-08-12T22:45:38.190Z,100527.00
2018-08-12T22:48:07.466Z,100523.00
2018-08-12T22:50:36.353Z,100521.00
2018-08-12T22:53:05.708Z,100523.00
2018-08-12T22:55:34.545Z,100516.00
2018-08-12T22:58:03.438Z,100518.00
2018-08-12T23:00:32.315Z,100512.00
2018-08-12T23:03:01.176Z,100514.00
2018-08-12T23:05:30.068Z,100514.00
2018-08-12T23:08:04.348Z,100509.00
2018-08-12T23:10:33.261Z,100504.00
2018-08-12T23:13:02.087Z,100502.00
2018-08-12T23:16:23.321Z,100500.00
2018-08-12T23:18:52.193Z,100495.00
2018-08-12T23:21:21.508Z,100502.00
2018-08-12T23:23:51.469Z,100507.00
2018-08-12T23:26:21.579Z,100500.00
2018-08-12T23:28:50.394Z,100502.00
2018-08-12T23:31:19.234Z,100505.00
2018-08-12T23:33:48.118Z,100498.00
2018-08-12T23:36:16.978Z,100494.00
2018-08-12T23:38:45.837Z,100485.00
2018-08-12T23:41:14.690Z,100489.00
2018-08-12T23:43:43.546Z,100492.00
2018-08-12T23:46:12.743Z,100493.00
2018-08-12T23:48:41.633Z,100496.00
2018-08-12T23:51:10.479Z,100487.00
2018-08-12T23:53:39.359Z,100482.00
2018-08-12T23:56:08.202Z,100473.00
2018-08-12T23:58:37.042Z,100476.00
